ZKCMK NZAR-NZWN
Flight info
| Callsign | ZKCMK |
|---|---|
| Flight time | 0h 53m |
| Altitude | 38000 |
| Route | ORIDI Q151 POKOM Q277 OPABI Q412 TPAPA |
| Aircraft | C525/L-SDFGRWY/SB1 |
Departure
| Time | 2026-04-25 02:54 |
|---|---|
| Airport | Ardmore Airport (NZAR) |
Arrival
| Time | 2026-04-25 03:47 |
|---|---|
| Airport | Wellington International Airport (NZWN) |
| Time | Latitude | Longitude | Altitude | Speed | Heading |
|---|---|---|---|---|---|
| 2026-04-25 02:35 | -37.03199 | 174.97810 | 110 ft | 0 kts | 134° |
| 2026-04-25 02:45 | -37.03200 | 174.97812 | 110 ft | 1 kts | 135° |
| 2026-04-25 02:45 | -37.03201 | 174.97812 | 110 ft | 0 kts | 133° |
| 2026-04-25 02:45 | -37.03201 | 174.97813 | 110 ft | 0 kts | 145° |
| 2026-04-25 02:46 | -37.03205 | 174.97812 | 111 ft | 1 kts | 205° |
| 2026-04-25 02:46 | -37.03217 | 174.97800 | 111 ft | 2 kts | 220° |
| 2026-04-25 02:46 | -37.03229 | 174.97786 | 111 ft | 3 kts | 231° |
| 2026-04-25 02:46 | -37.03218 | 174.97751 | 110 ft | 4 kts | 316° |
| 2026-04-25 02:47 | -37.03196 | 174.97726 | 111 ft | 3 kts | 319° |
| 2026-04-25 02:47 | -37.03168 | 174.97737 | 111 ft | 5 kts | 46° |
| 2026-04-25 02:47 | -37.03141 | 174.97765 | 111 ft | 5 kts | 8° |
| 2026-04-25 02:47 | -37.03104 | 174.97728 | 111 ft | 8 kts | 316° |
| 2026-04-25 02:48 | -37.03067 | 174.97684 | 111 ft | 6 kts | 316° |
| 2026-04-25 02:48 | -37.03037 | 174.97649 | 111 ft | 5 kts | 316° |
| 2026-04-25 02:48 | -37.03011 | 174.97644 | 110 ft | 3 kts | 35° |
| 2026-04-25 02:48 | -37.02998 | 174.97661 | 111 ft | 1 kts | 45° |
| 2026-04-25 02:49 | -37.02992 | 174.97669 | 111 ft | 1 kts | 45° |
| 2026-04-25 02:49 | -37.02977 | 174.97687 | 111 ft | 4 kts | 45° |
| 2026-04-25 02:49 | -37.02948 | 174.97725 | 110 ft | 7 kts | 46° |
| 2026-04-25 02:49 | -37.02905 | 174.97780 | 111 ft | 10 kts | 45° |
| 2026-04-25 02:50 | -37.02849 | 174.97849 | 111 ft | 11 kts | 45° |
| 2026-04-25 02:50 | -37.02821 | 174.97917 | 111 ft | 8 kts | 90° |
| 2026-04-25 02:50 | -37.02821 | 174.97983 | 111 ft | 6 kts | 90° |
| 2026-04-25 02:50 | -37.02820 | 174.98041 | 111 ft | 7 kts | 90° |
| 2026-04-25 02:51 | -37.02819 | 174.98114 | 111 ft | 8 kts | 72° |
| 2026-04-25 02:51 | -37.02772 | 174.98119 | 111 ft | 6 kts | 334° |
| 2026-04-25 02:51 | -37.02733 | 174.98096 | 111 ft | 5 kts | 332° |
| 2026-04-25 02:51 | -37.02711 | 174.98080 | 111 ft | 0 kts | 334° |
| 2026-04-25 02:52 | -37.02707 | 174.98077 | 111 ft | 2 kts | 333° |
| 2026-04-25 02:52 | -37.02681 | 174.98061 | 111 ft | 6 kts | 329° |
| 2026-04-25 02:52 | -37.02645 | 174.98018 | 111 ft | 7 kts | 277° |
| 2026-04-25 02:52 | -37.02652 | 174.97998 | 111 ft | 0 kts | 226° |
| 2026-04-25 02:53 | -37.02804 | 174.97806 | 111 ft | 64 kts | 227° |
| 2026-04-25 02:53 | -37.03256 | 174.97229 | 124 ft | 116 kts | 226° |
| 2026-04-25 02:53 | -37.03845 | 174.96510 | 457 ft | 126 kts | 223° |
| 2026-04-25 02:54 | -37.04552 | 174.95754 | 767 ft | 146 kts | 219° |
| 2026-04-25 02:54 | -37.05434 | 174.94888 | 1130 ft | 171 kts | 216° |
| 2026-04-25 02:54 | -37.06428 | 174.94008 | 1764 ft | 178 kts | 214° |
| 2026-04-25 02:54 | -37.07461 | 174.93214 | 2474 ft | 180 kts | 202° |
| 2026-04-25 02:55 | -37.08695 | 174.93091 | 3189 ft | 180 kts | 175° |
| 2026-04-25 02:55 | -37.09943 | 174.93294 | 3743 ft | 192 kts | 170° |
| 2026-04-25 02:55 | -37.11343 | 174.93599 | 4453 ft | 204 kts | 168° |
| 2026-04-25 02:55 | -37.12748 | 174.93919 | 5248 ft | 210 kts | 169° |
| 2026-04-25 02:56 | -37.14159 | 174.94319 | 6098 ft | 212 kts | 165° |
| 2026-04-25 02:56 | -37.15583 | 174.94792 | 6973 ft | 212 kts | 163° |
| 2026-04-25 02:56 | -37.17011 | 174.95277 | 7734 ft | 216 kts | 163° |
| 2026-04-25 02:56 | -37.18487 | 174.95779 | 8366 ft | 226 kts | 163° |
| 2026-04-25 02:57 | -37.20060 | 174.96313 | 8801 ft | 243 kts | 163° |
| 2026-04-25 02:57 | -37.21679 | 174.96858 | 9564 ft | 243 kts | 163° |
| 2026-04-25 02:57 | -37.23347 | 174.97418 | 10069 ft | 255 kts | 163° |
| 2026-04-25 02:57 | -37.25115 | 174.98012 | 10420 ft | 271 kts | 163° |
| 2026-04-25 02:58 | -37.26948 | 174.98624 | 11036 ft | 275 kts | 163° |
| 2026-04-25 02:58 | -37.28787 | 174.99236 | 11706 ft | 276 kts | 163° |
| 2026-04-25 02:58 | -37.30673 | 174.99908 | 12288 ft | 279 kts | 159° |
| 2026-04-25 02:58 | -37.32438 | 175.00900 | 12950 ft | 278 kts | 153° |
| 2026-04-25 02:59 | -37.34178 | 175.01979 | 13445 ft | 283 kts | 152° |
| 2026-04-25 02:59 | -37.35931 | 175.03091 | 14018 ft | 284 kts | 152° |
| 2026-04-25 02:59 | -37.37711 | 175.04225 | 14655 ft | 283 kts | 151° |
| 2026-04-25 02:59 | -37.39471 | 175.05347 | 15107 ft | 288 kts | 151° |
| 2026-04-25 03:00 | -37.41277 | 175.06493 | 15593 ft | 291 kts | 151° |
| 2026-04-25 03:00 | -37.43100 | 175.07565 | 16127 ft | 293 kts | 159° |
| 2026-04-25 03:00 | -37.45143 | 175.07718 | 16580 ft | 302 kts | 187° |
| 2026-04-25 03:00 | -37.47087 | 175.06656 | 17097 ft | 308 kts | 209° |
| 2026-04-25 03:01 | -37.48846 | 175.05103 | 17504 ft | 314 kts | 214° |
| 2026-04-25 03:01 | -37.50574 | 175.03389 | 18000 ft | 314 kts | 216° |
| 2026-04-25 03:01 | -37.52258 | 175.01662 | 18421 ft | 317 kts | 216° |
| 2026-04-25 03:01 | -37.53983 | 174.99866 | 18805 ft | 320 kts | 216° |
| 2026-04-25 03:02 | -37.55683 | 174.98084 | 19248 ft | 321 kts | 217° |
| 2026-04-25 03:02 | -37.57423 | 174.96332 | 19642 ft | 321 kts | 211° |
| 2026-04-25 03:02 | -37.59428 | 174.95082 | 20039 ft | 319 kts | 200° |
| 2026-04-25 03:02 | -37.61470 | 174.93986 | 20395 ft | 322 kts | 199° |
| 2026-04-25 03:03 | -37.63549 | 174.92912 | 20826 ft | 322 kts | 198° |
| 2026-04-25 03:03 | -37.65624 | 174.91846 | 21223 ft | 322 kts | 198° |
| 2026-04-25 03:03 | -37.67722 | 174.90765 | 21575 ft | 324 kts | 198° |
| 2026-04-25 03:03 | -37.69806 | 174.89691 | 21915 ft | 326 kts | 198° |
| 2026-04-25 03:04 | -37.71917 | 174.88599 | 22263 ft | 328 kts | 198° |
| 2026-04-25 03:04 | -37.74033 | 174.87501 | 22564 ft | 330 kts | 198° |
| 2026-04-25 03:04 | -37.76154 | 174.86398 | 22897 ft | 331 kts | 198° |
| 2026-04-25 03:05 | -37.80437 | 174.84169 | 23495 ft | 335 kts | 198° |
| 2026-04-25 03:05 | -37.82597 | 174.83043 | 23807 ft | 337 kts | 198° |
| 2026-04-25 03:05 | -37.84762 | 174.81911 | 24210 ft | 335 kts | 198° |
| 2026-04-25 03:05 | -37.86970 | 174.80910 | 24371 ft | 335 kts | 188° |
| 2026-04-25 03:06 | -37.89259 | 174.80748 | 24770 ft | 328 kts | 177° |
| 2026-04-25 03:06 | -37.91543 | 174.80699 | 24952 ft | 332 kts | 177° |
| 2026-04-25 03:06 | -37.93872 | 174.80679 | 25263 ft | 332 kts | 176° |
| 2026-04-25 03:06 | -37.96172 | 174.80667 | 25539 ft | 333 kts | 176° |
| 2026-04-25 03:07 | -37.98502 | 174.80659 | 25789 ft | 334 kts | 176° |
| 2026-04-25 03:07 | -38.00822 | 174.80655 | 25964 ft | 338 kts | 176° |
| 2026-04-25 03:07 | -38.03156 | 174.80650 | 26339 ft | 335 kts | 176° |
| 2026-04-25 03:07 | -38.05513 | 174.80649 | 26481 ft | 339 kts | 176° |
| 2026-04-25 03:08 | -38.07872 | 174.80646 | 26699 ft | 340 kts | 176° |
| 2026-04-25 03:08 | -38.10226 | 174.80646 | 27033 ft | 338 kts | 176° |
| 2026-04-25 03:08 | -38.12618 | 174.80644 | 27206 ft | 341 kts | 176° |
| 2026-04-25 03:08 | -38.14986 | 174.80644 | 27421 ft | 342 kts | 176° |
| 2026-04-25 03:09 | -38.17370 | 174.80644 | 27668 ft | 342 kts | 176° |
| 2026-04-25 03:09 | -38.19766 | 174.80644 | 27848 ft | 344 kts | 176° |
| 2026-04-25 03:09 | -38.22171 | 174.80646 | 28081 ft | 344 kts | 176° |
| 2026-04-25 03:09 | -38.24557 | 174.80646 | 28331 ft | 344 kts | 176° |
| 2026-04-25 03:10 | -38.26982 | 174.80646 | 28474 ft | 347 kts | 176° |
| 2026-04-25 03:10 | -38.29367 | 174.80647 | 28751 ft | 345 kts | 176° |
| 2026-04-25 03:10 | -38.31782 | 174.80647 | 28911 ft | 346 kts | 176° |
| 2026-04-25 03:10 | -38.34231 | 174.80649 | 29045 ft | 349 kts | 176° |
| 2026-04-25 03:11 | -38.36644 | 174.80649 | 29291 ft | 348 kts | 176° |
| 2026-04-25 03:11 | -38.39068 | 174.80650 | 29449 ft | 349 kts | 176° |
| 2026-04-25 03:11 | -38.41511 | 174.80650 | 29628 ft | 349 kts | 176° |
| 2026-04-25 03:11 | -38.43935 | 174.80652 | 29795 ft | 350 kts | 176° |
| 2026-04-25 03:12 | -38.46368 | 174.80652 | 29940 ft | 351 kts | 176° |
| 2026-04-25 03:12 | -38.48814 | 174.80652 | 30292 ft | 347 kts | 176° |
| 2026-04-25 03:12 | -38.51196 | 174.80650 | 30690 ft | 341 kts | 176° |
| 2026-04-25 03:12 | -38.53567 | 174.80652 | 30886 ft | 341 kts | 176° |
| 2026-04-25 03:13 | -38.55947 | 174.80652 | 31230 ft | 337 kts | 176° |
| 2026-04-25 03:13 | -38.58295 | 174.80653 | 31387 ft | 339 kts | 176° |
| 2026-04-25 03:13 | -38.60652 | 174.80655 | 31629 ft | 338 kts | 176° |
| 2026-04-25 03:13 | -38.62991 | 174.80655 | 31905 ft | 336 kts | 176° |
| 2026-04-25 03:14 | -38.65319 | 174.80655 | 32166 ft | 335 kts | 176° |
| 2026-04-25 03:14 | -38.67679 | 174.80658 | 32225 ft | 339 kts | 176° |
| 2026-04-25 03:14 | -38.72478 | 174.80662 | 32235 ft | 350 kts | 176° |
| 2026-04-25 03:15 | -38.77416 | 174.80666 | 32233 ft | 359 kts | 176° |
| 2026-04-25 03:15 | -38.82490 | 174.80638 | 32226 ft | 367 kts | 179° |
| 2026-04-25 03:16 | -38.87613 | 174.79835 | 32224 ft | 375 kts | 185° |
| 2026-04-25 03:16 | -38.92813 | 174.78862 | 32230 ft | 379 kts | 185° |
| 2026-04-25 03:17 | -38.98076 | 174.77881 | 32226 ft | 383 kts | 185° |
| 2026-04-25 03:17 | -39.03361 | 174.76904 | 32229 ft | 385 kts | 185° |
| 2026-04-25 03:18 | -39.08684 | 174.75923 | 32234 ft | 387 kts | 185° |
| 2026-04-25 03:18 | -39.14089 | 174.74928 | 32235 ft | 389 kts | 185° |
| 2026-04-25 03:19 | -39.19455 | 174.73941 | 32241 ft | 390 kts | 185° |
| 2026-04-25 03:19 | -39.24839 | 174.72949 | 32241 ft | 391 kts | 185° |
| 2026-04-25 03:20 | -39.30257 | 174.71951 | 32244 ft | 392 kts | 185° |
| 2026-04-25 03:20 | -39.35627 | 174.70960 | 32245 ft | 392 kts | 185° |
| 2026-04-25 03:21 | -39.41030 | 174.69961 | 32245 ft | 393 kts | 185° |
| 2026-04-25 03:21 | -39.46463 | 174.68956 | 32247 ft | 393 kts | 185° |
| 2026-04-25 03:22 | -39.51847 | 174.67958 | 32246 ft | 393 kts | 185° |
| 2026-04-25 03:22 | -39.57270 | 174.66951 | 32245 ft | 393 kts | 185° |
| 2026-04-25 03:23 | -39.62691 | 174.65942 | 32241 ft | 393 kts | 185° |
| 2026-04-25 03:23 | -39.68095 | 174.64937 | 32243 ft | 393 kts | 185° |
| 2026-04-25 03:24 | -39.73504 | 174.63930 | 32247 ft | 393 kts | 185° |
| 2026-04-25 03:24 | -39.78943 | 174.62918 | 32247 ft | 393 kts | 185° |
| 2026-04-25 03:25 | -39.84336 | 174.61914 | 32247 ft | 393 kts | 185° |
| 2026-04-25 03:25 | -39.89759 | 174.60904 | 32250 ft | 392 kts | 185° |
| 2026-04-25 03:26 | -39.95164 | 174.59894 | 32249 ft | 392 kts | 185° |
| 2026-04-25 03:26 | -40.00580 | 174.58881 | 32247 ft | 392 kts | 185° |
| 2026-04-25 03:27 | -40.05978 | 174.57869 | 32246 ft | 392 kts | 185° |
| 2026-04-25 03:27 | -40.11372 | 174.56857 | 32247 ft | 391 kts | 186° |
| 2026-04-25 03:28 | -40.14035 | 174.56355 | 31892 ft | 379 kts | 186° |
| 2026-04-25 03:28 | -40.16614 | 174.55868 | 31343 ft | 369 kts | 186° |
| 2026-04-25 03:28 | -40.19107 | 174.55397 | 30936 ft | 356 kts | 186° |
| 2026-04-25 03:28 | -40.21520 | 174.54942 | 30395 ft | 349 kts | 186° |
| 2026-04-25 03:29 | -40.23921 | 174.54489 | 29839 ft | 345 kts | 186° |
| 2026-04-25 03:29 | -40.26289 | 174.54044 | 29288 ft | 342 kts | 186° |
| 2026-04-25 03:29 | -40.28635 | 174.53601 | 28743 ft | 340 kts | 186° |
| 2026-04-25 03:29 | -40.30999 | 174.53155 | 28207 ft | 339 kts | 186° |
| 2026-04-25 03:30 | -40.33321 | 174.52718 | 27682 ft | 338 kts | 186° |
| 2026-04-25 03:30 | -40.35649 | 174.52278 | 27153 ft | 337 kts | 186° |
| 2026-04-25 03:30 | -40.37964 | 174.51840 | 26627 ft | 335 kts | 186° |
| 2026-04-25 03:30 | -40.40253 | 174.51407 | 26105 ft | 334 kts | 186° |
| 2026-04-25 03:31 | -40.42557 | 174.50970 | 25656 ft | 334 kts | 186° |
| 2026-04-25 03:31 | -40.44845 | 174.50537 | 25214 ft | 333 kts | 186° |
| 2026-04-25 03:31 | -40.47120 | 174.50105 | 24776 ft | 333 kts | 186° |
| 2026-04-25 03:31 | -40.49410 | 174.49670 | 24339 ft | 332 kts | 187° |
| 2026-04-25 03:32 | -40.51707 | 174.49234 | 23898 ft | 332 kts | 187° |
| 2026-04-25 03:32 | -40.53973 | 174.48804 | 23467 ft | 332 kts | 187° |
| 2026-04-25 03:32 | -40.56277 | 174.48366 | 23040 ft | 331 kts | 187° |
| 2026-04-25 03:32 | -40.58546 | 174.47932 | 22619 ft | 331 kts | 187° |
| 2026-04-25 03:33 | -40.60818 | 174.47501 | 22201 ft | 331 kts | 187° |
| 2026-04-25 03:33 | -40.63106 | 174.47064 | 21790 ft | 330 kts | 187° |
| 2026-04-25 03:33 | -40.65351 | 174.46635 | 21400 ft | 329 kts | 187° |
| 2026-04-25 03:33 | -40.67621 | 174.46202 | 21003 ft | 328 kts | 187° |
| 2026-04-25 03:34 | -40.69880 | 174.45793 | 20604 ft | 327 kts | 184° |
| 2026-04-25 03:34 | -40.72174 | 174.45949 | 20212 ft | 325 kts | 173° |
| 2026-04-25 03:34 | -40.74411 | 174.46300 | 19815 ft | 325 kts | 172° |
| 2026-04-25 03:34 | -40.76654 | 174.46693 | 19419 ft | 325 kts | 171° |
| 2026-04-25 03:35 | -40.78903 | 174.47095 | 19023 ft | 324 kts | 171° |
| 2026-04-25 03:35 | -40.81119 | 174.47492 | 18632 ft | 324 kts | 171° |
| 2026-04-25 03:35 | -40.83376 | 174.47894 | 18235 ft | 324 kts | 171° |
| 2026-04-25 03:35 | -40.85610 | 174.48292 | 17843 ft | 323 kts | 171° |
| 2026-04-25 03:36 | -40.87854 | 174.48691 | 17447 ft | 323 kts | 171° |
| 2026-04-25 03:36 | -40.90068 | 174.49086 | 17053 ft | 322 kts | 171° |
| 2026-04-25 03:36 | -40.92308 | 174.49483 | 16653 ft | 321 kts | 171° |
| 2026-04-25 03:36 | -40.94519 | 174.49876 | 16258 ft | 321 kts | 172° |
| 2026-04-25 03:37 | -40.96722 | 174.50267 | 15862 ft | 318 kts | 172° |
| 2026-04-25 03:37 | -40.98903 | 174.50655 | 15404 ft | 314 kts | 172° |
| 2026-04-25 03:37 | -41.01053 | 174.51036 | 14936 ft | 312 kts | 172° |
| 2026-04-25 03:37 | -41.03186 | 174.51416 | 14464 ft | 310 kts | 172° |
| 2026-04-25 03:38 | -41.05313 | 174.51794 | 13991 ft | 308 kts | 172° |
| 2026-04-25 03:38 | -41.07415 | 174.52170 | 13523 ft | 306 kts | 172° |
| 2026-04-25 03:38 | -41.09515 | 174.52580 | 13058 ft | 305 kts | 171° |
| 2026-04-25 03:38 | -41.11604 | 174.53027 | 12590 ft | 301 kts | 171° |
| 2026-04-25 03:39 | -41.13671 | 174.53477 | 12055 ft | 294 kts | 171° |
| 2026-04-25 03:39 | -41.15658 | 174.53909 | 11537 ft | 289 kts | 171° |
| 2026-04-25 03:39 | -41.17638 | 174.54340 | 11015 ft | 284 kts | 171° |
| 2026-04-25 03:39 | -41.19548 | 174.54753 | 10509 ft | 276 kts | 171° |
| 2026-04-25 03:40 | -41.21417 | 174.55158 | 10135 ft | 264 kts | 171° |
| 2026-04-25 03:40 | -41.23187 | 174.55541 | 9761 ft | 255 kts | 171° |
| 2026-04-25 03:40 | -41.24934 | 174.55917 | 9317 ft | 253 kts | 171° |
| 2026-04-25 03:40 | -41.26698 | 174.56297 | 8711 ft | 256 kts | 171° |
| 2026-04-25 03:41 | -41.28459 | 174.56677 | 8122 ft | 259 kts | 171° |
| 2026-04-25 03:41 | -41.30205 | 174.57297 | 7525 ft | 260 kts | 160° |
| 2026-04-25 03:41 | -41.31881 | 174.58203 | 6806 ft | 259 kts | 158° |
| 2026-04-25 03:41 | -41.33539 | 174.59164 | 6061 ft | 262 kts | 157° |
| 2026-04-25 03:42 | -41.35192 | 174.60130 | 5320 ft | 264 kts | 157° |
| 2026-04-25 03:42 | -41.36675 | 174.61414 | 5279 ft | 238 kts | 135° |
| 2026-04-25 03:42 | -41.37569 | 174.63153 | 5111 ft | 227 kts | 119° |
| 2026-04-25 03:42 | -41.38261 | 174.65028 | 4819 ft | 220 kts | 112° |
| 2026-04-25 03:43 | -41.38810 | 174.66945 | 4213 ft | 230 kts | 107° |
| 2026-04-25 03:43 | -41.39206 | 174.69041 | 3627 ft | 235 kts | 98° |
| 2026-04-25 03:43 | -41.39350 | 174.71194 | 3302 ft | 224 kts | 88° |
| 2026-04-25 03:43 | -41.39241 | 174.73053 | 2918 ft | 188 kts | 78° |
| 2026-04-25 03:44 | -41.38978 | 174.74533 | 2660 ft | 148 kts | 70° |
| 2026-04-25 03:44 | -41.38684 | 174.75764 | 2248 ft | 136 kts | 66° |
| 2026-04-25 03:44 | -41.38397 | 174.76921 | 1912 ft | 125 kts | 66° |
| 2026-04-25 03:44 | -41.38131 | 174.77963 | 1598 ft | 118 kts | 65° |
| 2026-04-25 03:45 | -41.37820 | 174.78912 | 1359 ft | 106 kts | 54° |
| 2026-04-25 03:45 | -41.37404 | 174.79654 | 1164 ft | 95 kts | 39° |
| 2026-04-25 03:45 | -41.36874 | 174.80179 | 930 ft | 96 kts | 25° |
| 2026-04-25 03:45 | -41.36223 | 174.80460 | 657 ft | 98 kts | 5° |
| 2026-04-25 03:46 | -41.35573 | 174.80512 | 491 ft | 90 kts | 1° |
| 2026-04-25 03:46 | -41.34953 | 174.80545 | 341 ft | 88 kts | 3° |
| 2026-04-25 03:46 | -41.34339 | 174.80588 | 240 ft | 86 kts | 1° |
| 2026-04-25 03:46 | -41.33751 | 174.80624 | 130 ft | 85 kts | 2° |
| 2026-04-25 03:47 | -41.33160 | 174.80661 | 48 ft | 80 kts | 1° |
| 2026-04-25 03:47 | -41.32688 | 174.80692 | 45 ft | 53 kts | 3° |
| 2026-04-25 03:47 | -41.32468 | 174.80707 | 45 ft | 14 kts | 4° |
| 2026-04-25 03:47 | -41.32409 | 174.80745 | 45 ft | 8 kts | 84° |
| 2026-04-25 03:48 | -41.32417 | 174.80814 | 45 ft | 6 kts | 118° |
| 2026-04-25 03:48 | -41.32463 | 174.80833 | 45 ft | 9 kts | 181° |
| 2026-04-25 03:48 | -41.32541 | 174.80827 | 45 ft | 13 kts | 184° |
| 2026-04-25 03:48 | -41.32645 | 174.80821 | 45 ft | 14 kts | 183° |
| 2026-04-25 03:49 | -41.32684 | 174.80740 | 45 ft | 11 kts | 274° |
| 2026-04-25 03:49 | -41.32680 | 174.80623 | 45 ft | 14 kts | 274° |
| 2026-04-25 03:49 | -41.32669 | 174.80560 | 45 ft | 4 kts | 356° |
| 2026-04-25 03:49 | -41.32620 | 174.80563 | 45 ft | 9 kts | 3° |
| 2026-04-25 03:50 | -41.32547 | 174.80569 | 45 ft | 10 kts | 2° |
| 2026-04-25 03:50 | -41.32512 | 174.80512 | 45 ft | 8 kts | 274° |
| 2026-04-25 03:50 | -41.32507 | 174.80458 | 45 ft | 4 kts | 160° |
| 2026-04-25 03:50 | -41.32510 | 174.80466 | 45 ft | 0 kts | 103° |
| 2026-04-25 03:51 | -41.32511 | 174.80473 | 45 ft | 0 kts | 95° |